Kezdőlap
METAR-TAF:

METAR-TAF

Repülőterek :

Eastern Slopes Regional Airport

Fryeburg, Maine, Amerikai Egyesült Államok

földrajzi szélesség: 43-59-21N, földrajzi hosszúság: 070-57-01W, magasság: 137 m

Jelenlegi meteorológiai megfigyelések

A jelentés 1 órával és 1 perccel ezelõtt készült, 18:54 UTC
Déli szél 4 kt
Hőmérséklet 6°C
Páratartalom 33%
Légköri nyomás 1016 hPa
Látótávolság: 16.1 km
Derült ég

METAR: KIZG 221854Z AUTO 18004KT 10SM CLR 06/M09 A3000 RMK AO2 SLP164 T00561089

Idő: 14:55 (19:55 UTC)


TAF: hiányzik

Meteorológiai megfigyelések és előrejelzések több, mint 4000 repülőtéren (METAR és TAF jelentéseket).

A térképen piros és sárga pontok jelzik az elérhető meteorológiai állomásokat.

Mozgassa az egeret a pont fölött, hogy megjelenjen az állomás neve.

Azután kattintson az időjárási megfigyelések és előrejelzések megtekintéséhez.

A térkép megváltoztatása: kattintson a fekete keresztel jelölt zöld gombra ráközelítéshez, a vonallal jelölt zöld gombra távolításhoz, vagy a zöld nyilakra a szomszédos térképek eléréséhez.


METAR-TAF: